Armada Township, Michigan
Current Conditions -  °F | °C
As of 12:55 PM on Wednesday 28 Jan 2015 (Local Time) from KMTC Reporting Station
Scattered Clouds Scattered Clouds  
Wind Chill: 17°   Ceiling: Unl
Heat Index: 26°   Visibility: 12mi
Dew Point: 10°   Wind: 8mph
Humidity: 52%   Direction: 160°SSE
Pressure: 30.3"   Gusts: NA
Location:  42.8463°N, 82.9201°W
Report Text: KMTC 281755Z 16007KT 12SM SCT220 M03/M12 A3030 RMK SLP279 T10341120 11034 21144 58007
Loading
Personal Weather Stations






























Interactive Weather Map New forecast layout! Learn more

10-Day Weather Forecast

Advertisements
Track Severe Weather on mobile